Time;durP1;ratioP1;P1;durP2;ratioP2;P2;SDS_P1;SDS_P2;PMS_P1;PMS_P2;Temp;Humidity;BMP_temperature;BMP_pressure;BME280_temperature;BME280_humidity;BME280_pressure;Samples;Min_cycle;Max_cycle;Signal;HPM_P1;HPM_P2
2021/09/10 00:01:08;;;;;;;;;3.00;2.00;;;;;20.37;70.54;100000.53;4996170;28;45279;-87
2021/09/10 00:03:33;;;;;;;;;3.00;3.00;;;;;20.37;70.95;100003.22;4994142;28;47133;-89
2021/09/10 00:05:59;;;;;;;;;1.00;1.00;;;;;20.34;70.57;99999.00;4996026;28;45201;-87
2021/09/10 00:08:24;;;;;;;;;2.00;2.00;;;;;20.33;71.08;99998.13;4994464;28;45249;-88
2021/09/10 00:10:49;;;;;;;;;2.50;2.00;;;;;20.29;70.63;99994.06;4994418;28;45519;-88
2021/09/10 00:13:15;;;;;;;;;1.75;1.75;;;;;20.28;70.66;99988.81;4996828;28;46263;-87
2021/09/10 00:15:40;;;;;;;;;4.00;2.50;;;;;20.26;70.65;99988.97;4998824;28;45196;-86
2021/09/10 00:18:05;;;;;;;;;2.25;2.25;;;;;20.28;70.78;99996.91;4997873;28;45197;-88
2021/09/10 00:20:32;;;;;;;;;4.00;2.25;;;;;20.22;70.56;99993.00;4998746;28;45246;-88
2021/09/10 00:22:57;;;;;;;;;3.25;3.25;;;;;20.20;71.31;99991.50;4997499;28;48389;-87
2021/09/10 00:25:22;;;;;;;;;4.00;2.25;;;;;20.19;70.78;99990.63;4997485;28;45666;-87
2021/09/10 00:27:48;;;;;;;;;3.75;2.00;;;;;20.24;71.71;99996.41;4999048;28;45197;-87
2021/09/10 00:30:13;;;;;;;;;2.50;2.50;;;;;20.14;71.48;99983.03;4998704;28;45504;-87
2021/09/10 00:32:38;;;;;;;;;2.00;2.00;;;;;20.13;71.04;99977.78;4998868;28;45240;-87
2021/09/10 00:35:04;;;;;;;;;3.75;2.75;;;;;20.10;71.19;99976.25;4997431;28;45323;-87
2021/09/10 00:37:30;;;;;;;;;2.75;2.75;;;;;20.14;71.31;99985.72;4999183;28;45215;-87
2021/09/10 00:39:56;;;;;;;;;2.00;2.00;;;;;20.15;71.59;100000.06;4996874;28;45336;-87
2021/09/10 00:42:21;;;;;;;;;3.00;3.00;;;;;19.97;71.11;99968.59;4999007;28;45528;-88
2021/09/10 00:44:47;;;;;;;;;2.00;2.00;;;;;19.97;71.72;99976.69;4997127;28;45368;-87
2021/09/10 00:47:12;;;;;;;;;2.00;2.00;;;;;20.09;71.52;99988.06;4998682;28;45268;-87
2021/09/10 00:49:39;;;;;;;;;4.00;2.75;;;;;20.00;71.77;99981.78;4996947;28;45364;-88
2021/09/10 00:52:05;;;;;;;;;3.00;3.00;;;;;20.13;71.77;100004.78;4997100;28;48380;-87
2021/09/10 00:54:30;;;;;;;;;2.00;2.00;;;;;20.04;71.91;99998.50;4996771;28;45300;-87
2021/09/10 00:56:58;;;;;;;;;2.50;2.50;;;;;19.97;72.08;99979.41;4997119;28;45187;-87
2021/09/10 00:59:23;;;;;;;;;2.00;2.00;;;;;20.09;71.37;100014.22;4998740;28;45310;-87
2021/09/10 01:01:50;;;;;;;;;4.00;2.75;;;;;20.02;72.06;99994.25;4996835;28;47977;-87
2021/09/10 01:04:16;;;;;;;;;2.75;2.00;;;;;19.92;71.61;99978.19;4998407;28;45694;-87
2021/09/10 01:06:42;;;;;;;;;4.75;3.25;;;;;20.06;71.60;100003.75;4998528;28;45341;-86
2021/09/10 01:09:08;;;;;;;;;6.25;2.00;;;;;20.05;71.58;100008.31;4998682;28;45313;-87
2021/09/10 01:11:33;;;;;;;;;4.50;3.25;;;;;20.05;72.06;100007.44;4996466;28;47410;-87
2021/09/10 01:13:59;;;;;;;;;2.00;2.00;;;;;20.11;71.65;100023.84;4998419;28;45203;-86
2021/09/10 01:16:25;;;;;;;;;2.00;2.00;;;;;20.01;72.21;100006.91;4997045;28;45172;-88
2021/09/10 01:18:50;;;;;;;;;3.00;3.00;;;;;19.97;72.21;100005.53;4996768;28;45204;-88
2021/09/10 01:21:15;;;;;;;;;2.00;2.00;;;;;20.02;71.64;100003.19;4998046;28;45629;-87
2021/09/10 01:23:41;;;;;;;;;2.75;2.75;;;;;20.02;72.20;100002.38;4997749;28;45321;-87
2021/09/10 01:26:06;;;;;;;;;2.50;2.50;;;;;20.02;72.06;100011.28;4995766;28;45228;-87
2021/09/10 01:28:32;;;;;;;;;2.75;2.75;;;;;20.08;71.80;100020.59;4996747;28;45186;-87
2021/09/10 01:30:57;;;;;;;;;5.75;3.00;;;;;20.02;71.47;100014.00;4996410;28;48524;-87
2021/09/10 01:33:23;;;;;;;;;2.00;2.00;;;;;20.06;71.91;100025.31;4998112;28;45202;-87
2021/09/10 01:35:48;;;;;;;;;3.75;3.50;;;;;19.99;72.25;100015.19;4998142;28;45331;-88
2021/09/10 01:38:14;;;;;;;;;5.50;3.00;;;;;19.94;71.58;100011.25;4998068;28;45252;-87
2021/09/10 01:40:39;;;;;;;;;4.75;4.25;;;;;20.05;71.81;100037.97;4997480;28;45258;-87
2021/09/10 01:43:06;;;;;;;;;2.75;2.50;;;;;20.04;72.31;100035.41;4997889;28;45239;-87
2021/09/10 01:45:34;;;;;;;;;2.00;2.00;;;;;19.97;71.75;100021.72;4996737;28;45299;-86
2021/09/10 01:48:00;;;;;;;;;3.00;3.00;;;;;19.98;71.90;100023.41;4996441;28;45188;-87
2021/09/10 01:50:25;;;;;;;;;3.25;3.25;;;;;19.88;72.41;100001.09;4995813;28;47819;-87
2021/09/10 01:52:52;;;;;;;;;2.50;2.50;;;;;20.00;72.01;100022.25;4996204;28;45276;-87
2021/09/10 01:55:17;;;;;;;;;2.00;2.00;;;;;19.98;71.94;100023.41;4996357;28;45217;-86
2021/09/10 01:57:49;;;;;;;;;4.75;3.00;;;;;19.95;72.11;100016.50;4996366;28;45316;-87
2021/09/10 02:00:16;;;;;;;;;3.00;2.00;;;;;19.83;71.94;99996.19;4995820;28;46394;-87
2021/09/10 02:02:41;;;;;;;;;5.50;2.75;;;;;20.01;72.28;100028.50;4997766;28;45171;-87
2021/09/10 02:05:09;;;;;;;;;3.25;3.00;;;;;19.94;71.70;100020.19;4997448;28;45200;-88
2021/09/10 02:07:34;;;;;;;;;4.00;3.00;;;;;19.99;72.03;100033.19;4997291;28;45405;-86
2021/09/10 02:10:00;;;;;;;;;3.50;2.00;;;;;19.93;71.96;100025.75;4996107;28;48151;-87
2021/09/10 02:12:25;;;;;;;;;4.75;4.00;;;;;19.93;72.31;100031.97;4995795;28;45276;-86
2021/09/10 02:14:51;;;;;;;;;4.25;2.50;;;;;19.94;71.78;100035.53;4995898;28;45256;-86
2021/09/10 02:17:16;;;;;;;;;4.00;3.00;;;;;19.90;72.43;100040.41;4997293;28;45264;-87
2021/09/10 02:19:41;;;;;;;;;3.75;3.00;;;;;19.83;72.01;100018.59;4997038;28;45320;-87
2021/09/10 02:22:07;;;;;;;;;2.75;2.75;;;;;19.92;72.39;100041.06;4995837;28;45812;-87
2021/09/10 02:24:32;;;;;;;;;4.50;2.75;;;;;19.89;72.08;100027.06;4995448;28;45253;-87
2021/09/10 02:26:57;;;;;;;;;3.00;3.00;;;;;19.88;72.34;100036.16;4995764;28;45211;-87
2021/09/10 02:29:23;;;;;;;;;2.00;2.00;;;;;19.90;72.50;100028.78;4995873;28;46982;-88
2021/09/10 02:31:48;;;;;;;;;3.00;3.00;;;;;19.95;72.14;100039.91;4997169;28;45323;-88
2021/09/10 02:34:13;;;;;;;;;6.50;3.00;;;;;19.95;71.91;100035.38;4996723;28;45280;-87
2021/09/10 02:36:39;;;;;;;;;3.75;3.00;;;;;19.88;72.43;100031.63;4996803;28;45054;-87
2021/09/10 02:39:07;;;;;;;;;4.00;2.00;;;;;19.90;71.79;100037.69;4997010;28;45248;-86
2021/09/10 02:41:33;;;;;;;;;3.25;3.00;;;;;19.93;72.23;100056.25;4995547;28;45258;-87
2021/09/10 02:43:59;;;;;;;;;4.00;4.00;;;;;19.75;72.21;100020.34;4995392;28;45277;-87
2021/09/10 02:46:24;;;;;;;;;4.00;3.00;;;;;19.79;72.06;100025.31;4995608;28;45259;-86
2021/09/10 02:48:49;;;;;;;;;2.50;2.50;;;;;19.75;72.47;100018.53;4995040;28;46078;-87
2021/09/10 02:51:15;;;;;;;;;4.00;2.75;;;;;19.86;72.02;100039.00;4996334;28;45278;-87
2021/09/10 02:53:40;;;;;;;;;3.00;3.00;;;;;19.79;72.52;100033.41;4996726;28;45244;-88
2021/09/10 02:56:05;;;;;;;;;3.00;3.00;;;;;19.78;72.30;100026.31;4995431;28;45312;-87
2021/09/10 02:58:31;;;;;;;;;4.75;3.00;;;;;19.64;72.17;100005.28;4996579;28;45288;-87
2021/09/10 03:00:59;;;;;;;;;4.75;4.00;;;;;19.74;72.69;100026.75;4995211;28;45158;-87
2021/09/10 03:03:26;;;;;;;;;4.00;3.75;;;;;19.81;72.21;100038.66;4996685;28;45350;-87
2021/09/10 03:05:51;;;;;;;;;3.25;2.75;;;;;19.71;72.53;100017.16;4995150;28;45438;-87
2021/09/10 03:08:17;;;;;;;;;5.00;3.75;;;;;19.75;72.36;100031.16;4996577;28;46239;-87
2021/09/10 03:10:42;;;;;;;;;3.00;3.00;;;;;19.76;72.63;100038.25;4994647;28;45192;-86
2021/09/10 03:13:07;;;;;;;;;3.00;2.00;;;;;19.63;72.26;100007.13;4995270;28;45279;-87
2021/09/10 03:15:33;;;;;;;;;3.50;3.25;;;;;19.72;72.55;100023.38;4996515;28;45177;-87
2021/09/10 03:17:58;;;;;;;;;3.00;3.00;;;;;19.63;72.13;100003.59;4994759;28;47303;-87
2021/09/10 03:20:23;;;;;;;;;3.00;3.00;;;;;19.69;72.39;100027.22;4996380;28;45344;-87
2021/09/10 03:22:49;;;;;;;;;2.75;2.75;;;;;19.70;72.83;100030.78;4996528;28;45239;-87
2021/09/10 03:25:14;;;;;;;;;4.50;3.50;;;;;19.60;72.44;100014.69;4995035;28;45429;-87
2021/09/10 03:27:39;;;;;;;;;4.00;4.00;;;;;19.63;73.04;100030.56;4994723;28;46835;-87
2021/09/10 03:30:06;;;;;;;;;5.00;4.00;;;;;19.67;72.73;100038.19;4996439;28;45294;-87
2021/09/10 03:32:31;;;;;;;;;5.25;3.25;;;;;19.58;72.94;100031.03;4995189;28;45323;-86
2021/09/10 03:34:57;;;;;;;;;4.00;4.00;;;;;19.57;72.67;100037.44;4994631;28;45434;-87
2021/09/10 03:37:22;;;;;;;;;5.00;3.50;;;;;19.49;73.01;100027.41;4994729;28;47460;-87
2021/09/10 03:39:47;;;;;;;;;4.75;3.50;;;;;19.54;73.20;100034.19;4996161;28;45185;-87
2021/09/10 03:42:13;;;;;;;;;4.00;4.00;;;;;19.58;73.10;100049.03;4995873;28;45264;-88
2021/09/10 03:44:38;;;;;;;;;5.50;4.00;;;;;19.47;73.81;100032.13;4996099;28;45231;-87
2021/09/10 03:47:04;;;;;;;;;5.00;5.00;;;;;19.51;73.59;100039.88;4994676;28;46915;-87
2021/09/10 03:49:30;;;;;;;;;7.75;5.00;;;;;19.51;73.17;100029.97;4999041;28;45232;-87
2021/09/10 03:51:55;;;;;;;;;3.75;3.75;;;;;19.43;73.19;100019.94;4999247;28;45259;-85
2021/09/10 03:54:21;;;;;;;;;5.50;4.00;;;;;19.54;72.96;100034.19;4999274;28;45172;-87
2021/09/10 03:56:46;;;;;;;;;4.00;4.00;;;;;19.48;73.40;100025.72;4999667;28;45633;-87
2021/09/10 03:59:11;;;;;;;;;4.75;4.25;;;;;19.56;73.39;100027.63;4997649;28;45384;-86
2021/09/10 04:01:37;;;;;;;;;6.00;5.00;;;;;19.47;73.45;100015.09;4999358;28;45195;-86
2021/09/10 04:04:02;;;;;;;;;5.00;5.00;;;;;19.53;73.64;100022.56;4999718;28;45206;-87
2021/09/10 04:06:27;;;;;;;;;3.75;3.75;;;;;19.45;73.28;100012.56;4997247;28;46967;-87
2021/09/10 04:08:52;;;;;;;;;5.75;4.50;;;;;19.53;73.33;100021.72;4999150;28;45232;-88
2021/09/10 04:11:18;;;;;;;;;7.00;4.00;;;;;19.49;72.95;100019.31;4999289;28;45221;-87
2021/09/10 04:13:43;;;;;;;;;5.50;3.75;;;;;19.44;73.11;100008.16;4999486;28;45204;-87
2021/09/10 04:16:08;;;;;;;;;7.00;6.00;;;;;19.57;73.26;100023.94;4997499;28;48042;-87
2021/09/10 04:18:34;;;;;;;;;3.00;3.00;;;;;19.69;72.98;100031.78;4997256;28;45605;-87
2021/09/10 04:20:59;;;;;;;;;4.50;4.00;;;;;19.74;73.45;100042.94;4997656;28;45197;-87
2021/09/10 04:23:25;;;;;;;;;5.00;5.00;;;;;19.76;72.82;100040.94;4997478;28;45323;-89
2021/09/10 04:25:50;;;;;;;;;4.00;3.00;;;;;19.63;73.08;100028.69;4997527;28;47952;-86
2021/09/10 04:28:16;;;;;;;;;4.75;4.00;;;;;19.70;72.67;100038.88;4998911;28;45226;-86
2021/09/10 04:30:41;;;;;;;;;4.50;4.00;;;;;19.74;73.04;100037.53;4998673;28;45325;-86
2021/09/10 04:33:06;;;;;;;;;4.75;4.75;;;;;19.76;73.05;100035.53;4998799;28;45370;-85
2021/09/10 04:35:32;;;;;;;;;4.50;4.00;;;;;19.81;72.89;100035.97;4998381;28;45223;-86
2021/09/10 04:37:57;;;;;;;;;6.00;6.00;;;;;19.84;73.26;100038.34;4998459;28;45240;-86
2021/09/10 04:40:22;;;;;;;;;3.00;3.00;;;;;19.80;73.13;100027.00;4997218;28;45176;-85
2021/09/10 04:42:48;;;;;;;;;5.00;5.00;;;;;19.80;72.79;100021.63;4996895;28;45165;-86
2021/09/10 04:45:13;;;;;;;;;4.50;4.50;;;;;19.89;73.06;100038.69;4998249;28;46220;-92
2021/09/10 04:47:38;;;;;;;;;6.00;4.75;;;;;19.88;72.98;100028.94;5001729;28;45169;-93
2021/09/10 04:50:06;;;;;;;;;5.00;5.00;;;;;19.93;72.32;100048.16;5000231;28;45196;-91
2021/09/10 04:52:31;;;;;;;;;5.00;5.00;;;;;19.90;72.93;100032.31;4999524;28;45168;-88
2021/09/10 04:54:56;;;;;;;;;5.50;4.00;;;;;19.95;72.69;100042.63;5000695;28;45214;-90
2021/09/10 04:57:22;;;;;;;;;5.25;4.00;;;;;19.99;72.90;100044.00;4999825;28;45145;-90
2021/09/10 04:59:47;;;;;;;;;4.00;4.00;;;;;20.00;72.89;100037.59;4999161;28;45085;-91
2021/09/10 05:02:13;;;;;;;;;2.50;2.25;;;;;20.10;72.02;100049.13;4998924;28;45543;-90
2021/09/10 05:04:38;;;;;;;;;6.00;4.00;;;;;20.13;72.39;100047.97;4999427;28;45678;-89
2021/09/10 05:07:04;;;;;;;;;6.00;4.75;;;;;20.11;72.18;100049.97;5000058;28;45611;-90
2021/09/10 05:09:29;;;;;;;;;6.00;5.00;;;;;20.14;71.65;100058.59;4999328;28;45306;-90
2021/09/10 05:11:54;;;;;;;;;7.00;5.00;;;;;20.15;72.21;100059.44;4999901;28;45240;-89
2021/09/10 05:14:19;;;;;;;;;6.00;6.00;;;;;20.13;71.93;100053.38;4999678;28;45239;-89
2021/09/10 05:16:45;;;;;;;;;3.50;3.50;;;;;20.12;71.72;100044.44;5006360;28;45204;-87
2021/09/10 05:19:12;;;;;;;;;5.75;4.00;;;;;20.06;71.68;100036.13;4996636;28;45174;-88
2021/09/10 05:21:38;;;;;;;;;4.00;4.00;;;;;20.15;71.63;100057.59;4996949;28;45496;-88
2021/09/10 05:24:03;;;;;;;;;5.25;5.25;;;;;20.11;71.67;100058.94;4996661;28;47495;-87
2021/09/10 05:26:29;;;;;;;;;6.00;5.25;;;;;19.99;71.30;100042.16;4996509;28;45248;-88
2021/09/10 05:28:54;;;;;;;;;6.00;4.75;;;;;20.05;71.87;100064.97;4996577;28;45138;-87
2021/09/10 05:31:21;;;;;;;;;4.75;4.50;;;;;19.83;71.33;100040.19;4998033;28;45402;-88
2021/09/10 05:33:46;;;;;;;;;5.50;5.50;;;;;20.00;71.24;100080.78;4997793;28;45271;-89
2021/09/10 05:36:11;;;;;;;;;8.50;5.75;;;;;19.94;71.40;100067.91;4996661;28;45476;-87
2021/09/10 05:38:37;;;;;;;;;6.00;6.00;;;;;19.84;71.93;100059.94;4997998;28;45243;-87
2021/09/10 05:41:02;;;;;;;;;5.25;5.25;;;;;19.87;72.43;100065.00;4998059;28;45222;-88
2021/09/10 05:43:27;;;;;;;;;8.75;5.00;;;;;19.83;71.87;100059.06;4997787;28;45257;-88
2021/09/10 05:45:53;;;;;;;;;4.75;4.00;;;;;19.94;71.87;100086.81;4996172;28;45636;-88
2021/09/10 05:48:19;;;;;;;;;6.75;5.25;;;;;19.97;72.24;100097.28;4996258;28;45099;-87
2021/09/10 05:50:46;;;;;;;;;6.75;4.75;;;;;20.00;71.94;100102.34;4996489;28;45267;-88
2021/09/10 05:53:11;;;;;;;;;5.50;5.25;;;;;19.97;72.27;100097.28;4996125;28;48410;-89
2021/09/10 05:55:36;;;;;;;;;6.00;6.00;;;;;19.83;72.24;100079.81;4997391;28;45282;-87
2021/09/10 05:58:02;;;;;;;;;7.25;6.00;;;;;19.98;72.13;100104.34;4997896;28;45212;-89
2021/09/10 06:00:27;;;;;;;;;7.50;5.00;;;;;19.87;72.05;100083.06;4997429;28;45188;-87
2021/09/10 06:02:53;;;;;;;;;5.00;5.00;;;;;19.85;72.23;100091.28;4997687;28;45381;-88
2021/09/10 06:05:18;;;;;;;;;7.25;6.25;;;;;19.99;71.88;100106.06;4996161;28;45731;-89
2021/09/10 06:07:44;;;;;;;;;4.50;4.25;;;;;19.82;71.68;100084.34;4996274;28;45201;-88
2021/09/10 06:10:12;;;;;;;;;8.50;7.00;;;;;19.91;72.40;100111.38;4995369;28;45193;-89
2021/09/10 06:12:38;;;;;;;;;6.50;6.50;;;;;19.96;71.83;100122.56;4997404;28;46370;-88
2021/09/10 06:15:03;;;;;;;;;7.00;6.00;;;;;19.87;72.14;100116.25;4995782;28;45230;-88
2021/09/10 06:17:29;;;;;;;;;7.25;6.25;;;;;19.94;71.91;100125.41;4996060;28;45276;-87
2021/09/10 06:19:54;;;;;;;;;6.25;5.75;;;;;19.89;72.38;100113.41;4995605;28;45252;-87
2021/09/10 06:22:19;;;;;;;;;6.50;5.00;;;;;19.81;72.07;100100.72;4997136;28;46213;-88
2021/09/10 06:24:45;;;;;;;;;5.25;3.75;;;;;19.98;72.43;100120.53;4995589;28;45235;-88
2021/09/10 06:27:10;;;;;;;;;9.00;6.25;;;;;20.04;72.56;100130.72;4997436;28;45222;-87
2021/09/10 06:29:35;;;;;;;;;6.00;6.00;;;;;20.02;72.66;100121.09;4995826;28;45217;-87
2021/09/10 06:32:01;;;;;;;;;7.00;5.75;;;;;19.96;72.41;100103.69;4995528;28;48055;-87
2021/09/10 06:34:26;;;;;;;;;7.75;5.00;;;;;20.10;72.14;100115.75;4996926;28;45277;-87
2021/09/10 06:36:52;;;;;;;;;6.00;5.00;;;;;20.11;72.51;100117.44;4995947;28;45480;-86
2021/09/10 06:39:18;;;;;;;;;5.50;4.25;;;;;20.26;71.88;100133.91;4995290;28;45362;-87
2021/09/10 06:41:44;;;;;;;;;8.00;4.25;;;;;20.16;71.85;100109.72;4997109;28;45252;-86
2021/09/10 06:44:10;;;;;;;;;5.00;3.50;;;;;20.16;71.75;100107.84;4995700;28;45197;-88
2021/09/10 06:46:36;;;;;;;;;5.00;5.00;;;;;20.39;72.02;100138.88;4997195;28;45232;-88
2021/09/10 06:49:02;;;;;;;;;5.75;4.75;;;;;20.30;71.49;100122.63;4995507;28;45463;-88
2021/09/10 06:51:28;;;;;;;;;8.50;5.50;;;;;20.33;71.49;100122.31;4995386;28;47057;-87
2021/09/10 06:53:53;;;;;;;;;7.00;5.50;;;;;20.31;71.33;100127.03;4995104;28;45852;-86
2021/09/10 06:56:19;;;;;;;;;5.50;5.50;;;;;20.44;71.15;100145.50;4995361;28;45193;-86
2021/09/10 06:58:44;;;;;;;;;5.50;3.75;;;;;20.46;71.19;100156.97;4995338;28;45383;-87
2021/09/10 07:01:11;;;;;;;;;4.50;4.50;;;;;20.40;70.90;100160.34;4995212;28;47090;-86
2021/09/10 07:03:36;;;;;;;;;6.00;5.00;;;;;20.29;71.35;100130.88;4996431;28;45560;-88
2021/09/10 07:06:01;;;;;;;;;4.75;4.00;;;;;20.40;71.10;100156.78;4995461;28;45261;-87
2021/09/10 07:08:28;;;;;;;;;5.25;4.25;;;;;20.33;70.86;100143.06;4997030;28;45315;-87
2021/09/10 07:10:54;;;;;;;;;5.50;5.00;;;;;20.45;71.12;100157.16;4996403;28;46799;-86
2021/09/10 07:13:20;;;;;;;;;5.25;4.25;;;;;20.42;71.29;100144.84;4995050;28;45181;-86
2021/09/10 07:15:45;;;;;;;;;7.25;5.00;;;;;20.51;70.77;100153.84;4996864;28;45228;-87
2021/09/10 07:18:11;;;;;;;;;5.00;4.75;;;;;20.38;71.51;100131.78;4996217;28;45142;-86
2021/09/10 07:20:36;;;;;;;;;6.75;4.75;;;;;20.59;71.38;100161.13;4994684;28;48407;-86
2021/09/10 07:23:02;;;;;;;;;7.50;6.00;;;;;20.56;71.04;100150.63;4995063;28;45058;-87
2021/09/10 07:25:27;;;;;;;;;7.00;4.25;;;;;20.60;71.54;100146.63;4996370;28;45237;-86
2021/09/10 07:27:53;;;;;;;;;5.50;5.00;;;;;20.57;71.55;100138.84;4995320;28;45174;-86
2021/09/10 07:30:18;;;;;;;;;4.00;4.00;;;;;20.71;70.69;100154.47;4995763;28;46225;-85
2021/09/10 07:32:44;;;;;;;;;5.50;5.50;;;;;20.83;71.33;100163.97;4996163;28;45345;-86
2021/09/10 07:35:10;;;;;;;;;6.75;6.00;;;;;20.86;70.50;100166.38;4996158;28;45403;-86
2021/09/10 07:37:37;;;;;;;;;9.25;5.25;;;;;20.79;70.58;100150.97;4995054;28;45455;-87
2021/09/10 07:40:05;;;;;;;;;7.75;4.25;;;;;20.94;70.19;100164.72;4995989;28;45376;-88
2021/09/10 07:42:30;;;;;;;;;4.00;4.00;;;;;20.96;70.60;100168.09;4995981;28;45416;-86
2021/09/10 07:44:55;;;;;;;;;6.00;6.00;;;;;20.99;70.55;100165.06;4994857;28;45288;-86
2021/09/10 07:47:21;;;;;;;;;5.75;4.25;;;;;21.07;70.42;100175.91;4996434;28;45227;-86
2021/09/10 07:49:46;;;;;;;;;5.00;5.00;;;;;21.01;70.31;100160.38;4995441;28;45433;-86
2021/09/10 07:52:12;;;;;;;;;6.50;5.00;;;;;21.18;69.86;100181.03;4996191;28;45167;-87
2021/09/10 07:54:37;;;;;;;;;8.00;5.75;;;;;21.22;69.86;100181.56;4996038;28;45297;-86
2021/09/10 07:57:03;;;;;;;;;6.25;5.25;;;;;21.18;69.84;100156.72;4994753;28;45177;-86
2021/09/10 07:59:29;;;;;;;;;4.50;3.75;;;;;21.41;69.77;100176.91;4995707;28;46011;-86
2021/09/10 08:01:54;;;;;;;;;6.50;5.50;;;;;21.49;69.96;100169.66;4994604;28;45574;-87
2021/09/10 08:04:20;;;;;;;;;5.00;5.00;;;;;21.59;69.17;100155.16;4994285;28;45740;-87
2021/09/10 08:06:45;;;;;;;;;4.25;3.25;;;;;21.96;68.09;100178.19;4994659;28;45221;-86
2021/09/10 08:09:11;;;;;;;;;5.50;4.50;;;;;21.98;67.71;100178.88;4994003;28;48447;-87
2021/09/10 08:11:36;;;;;;;;;6.75;4.00;;;;;22.08;67.08;100181.44;4994321;28;45633;-89
2021/09/10 08:14:06;;;;;;;;;6.00;4.50;;;;;22.14;67.78;100187.00;4994060;28;45778;-88
2021/09/10 08:16:32;;;;;;;;;6.50;5.00;;;;;22.19;67.23;100195.47;4995969;28;45352;-88
2021/09/10 08:18:58;;;;;;;;;2.25;2.25;;;;;22.09;66.67;100183.97;4995438;28;45344;-88
2021/09/10 08:21:23;;;;;;;;;5.00;3.00;;;;;22.14;66.44;100197.81;4994094;28;45212;-89
2021/09/10 08:23:49;;;;;;;;;4.75;3.00;;;;;22.27;66.76;100202.72;4993841;28;45242;-87
2021/09/10 08:26:14;;;;;;;;;5.50;3.00;;;;;22.28;66.54;100201.72;4994636;28;45366;-88
2021/09/10 08:28:39;;;;;;;;;4.25;3.25;;;;;22.28;66.51;100196.31;4995836;28;45305;-88
2021/09/10 08:31:05;;;;;;;;;3.00;3.00;;;;;22.29;65.45;100198.00;4995449;28;45227;-88
2021/09/10 08:33:30;;;;;;;;;5.00;4.00;;;;;22.34;65.59;100200.22;4995962;28;45234;-87
2021/09/10 08:35:55;;;;;;;;;2.75;2.75;;;;;22.33;65.20;100191.25;4997452;28;45261;-88
2021/09/10 08:38:20;;;;;;;;;3.25;2.00;;;;;22.50;65.42;100216.47;4998874;28;45458;-87
2021/09/10 08:40:47;;;;;;;;;2.75;2.75;;;;;22.55;64.70;100222.19;4998650;28;45203;-88
2021/09/10 08:43:14;;;;;;;;;2.00;2.00;;;;;22.47;64.75;100203.25;4997265;28;45217;-88
2021/09/10 08:45:40;;;;;;;;;8.00;8.00;;;;;22.37;64.46;100200.72;4997251;28;45135;-88
2021/09/10 08:48:05;;;;;;;;;3.25;3.25;;;;;22.48;64.86;100223.91;4998574;28;46737;-88
2021/09/10 08:50:31;;;;;;;;;4.25;2.75;;;;;22.42;65.05;100221.88;4997979;28;45415;-87
2021/09/10 08:52:56;;;;;;;;;5.00;3.00;;;;;22.31;64.58;100216.78;4997344;28;45268;-87
2021/09/10 08:55:22;;;;;;;;;6.75;5.25;;;;;22.30;64.96;100217.78;4998610;28;45214;-87
2021/09/10 08:57:53;;;;;;;;;4.50;4.00;;;;;22.24;66.09;100203.91;4998437;28;45271;-88
2021/09/10 09:00:29;;;;;;;;;6.00;3.25;;;;;22.44;65.12;100222.56;4998296;28;45239;-88
2021/09/10 09:03:00;;;;;;;;;6.00;3.75;;;;;22.49;64.83;100222.03;4997267;28;45347;-89
2021/09/10 09:05:27;;;;;;;;;4.75;4.00;;;;;22.48;65.14;100212.25;4996825;28;45387;-88
2021/09/10 09:08:13;;;;;;;;;3.75;3.50;;;;;22.53;64.23;100229.66;4998807;28;45621;-88
2021/09/10 09:11:05;;;;;;;;;4.00;3.00;;;;;22.57;64.16;100239.16;4996699;28;45470;-88
2021/09/10 09:13:39;;;;;;;;;4.50;4.25;;;;;22.55;64.71;100230.31;4996568;28;45231;-87
2021/09/10 09:16:29;;;;;;;;;6.00;4.00;;;;;22.60;64.43;100235.22;4998317;28;45188;-88
2021/09/10 09:19:04;;;;;;;;;2.75;2.00;;;;;22.64;64.59;100238.47;4996568;28;47872;-88
2021/09/10 09:21:37;;;;;;;;;6.00;4.00;;;;;22.69;64.09;100241.50;4998476;28;45198;-89
2021/09/10 09:24:21;;;;;;;;;5.25;5.00;;;;;22.63;64.11;100224.06;4996825;28;45276;-89
2021/09/10 09:26:49;;;;;;;;;3.00;3.00;;;;;22.78;63.37;100231.50;4998298;28;45252;-88
2021/09/10 09:29:20;;;;;;;;;3.75;2.50;;;;;22.75;64.06;100219.97;4998103;28;46071;-88
2021/09/10 09:31:55;;;;;;;;;5.75;2.75;;;;;23.06;64.75;100245.50;4998188;28;45510;-88
2021/09/10 09:34:47;;;;;;;;;3.00;3.00;;;;;23.46;63.85;100243.66;4996467;28;45307;-89
2021/09/10 09:37:18;;;;;;;;;4.75;4.00;;;;;23.69;62.38;100215.75;4998218;28;45201;-89
2021/09/10 09:39:53;;;;;;;;;4.25;4.25;;;;;23.98;61.65;100239.47;4996125;28;47508;-86
2021/09/10 09:42:25;;;;;;;;;3.25;3.25;;;;;24.11;61.55;100244.31;4996412;28;45597;-88
2021/09/10 09:45:24;;;;;;;;;3.50;3.50;;;;;24.24;60.88;100251.84;4997070;28;45331;-87
2021/09/10 09:47:49;;;;;;;;;3.25;3.00;;;;;24.29;60.37;100231.25;4998222;28;45320;-86
2021/09/10 09:50:17;;;;;;;;;6.00;3.00;;;;;24.50;59.89;100242.47;4995609;28;48050;-86
2021/09/10 09:52:49;;;;;;;;;4.00;4.00;;;;;24.81;60.64;100235.06;4996260;28;45509;-87
2021/09/10 09:55:15;;;;;;;;;5.50;3.50;;;;;25.41;59.53;100226.94;4997404;28;45211;-87
2021/09/10 09:57:43;;;;;;;;;4.00;3.50;;;;;26.21;59.30;100229.69;4996271;28;45306;-86
2021/09/10 10:00:09;;;;;;;;;3.00;3.00;;;;;26.87;56.24;100202.13;4995908;28;47386;-86
2021/09/10 10:02:36;;;;;;;;;3.00;2.00;;;;;27.75;54.08;100232.53;4995956;28;45194;-86
2021/09/10 10:05:02;;;;;;;;;4.50;2.75;;;;;28.27;53.49;100228.25;4997192;28;45239;-87
2021/09/10 10:07:50;;;;;;;;;2.00;2.00;;;;;28.80;51.06;100238.34;4996421;28;45248;-87
2021/09/10 10:10:22;;;;;;;;;3.00;3.00;;;;;28.98;50.83;100220.44;4997116;28;45261;-88
2021/09/10 10:12:51;;;;;;;;;4.75;2.50;;;;;29.01;49.19;100226.31;4996105;28;45473;-86
2021/09/10 10:15:20;;;;;;;;;4.00;4.00;;;;;28.62;48.93;100221.75;4995824;28;45258;-86
2021/09/10 10:17:47;;;;;;;;;2.75;2.75;;;;;28.22;50.25;100228.91;4997552;28;45278;-86
2021/09/10 10:20:44;;;;;;;;;4.00;3.00;;;;;27.88;50.29;100229.88;4995931;28;47133;-87
2021/09/10 10:23:43;;;;;;;;;2.50;2.00;;;;;27.96;49.60;100232.41;4996263;28;45995;-87
2021/09/10 10:26:12;;;;;;;;;4.50;3.00;;;;;28.00;49.16;100225.50;4996133;28;45454;-87
2021/09/10 10:28:42;;;;;;;;;4.75;3.50;;;;;27.72;49.71;100218.28;4998186;28;45311;-88
2021/09/10 10:31:08;;;;;;;;;3.50;2.50;;;;;27.52;50.60;100231.88;4995891;28;47348;-86
2021/09/10 10:33:33;;;;;;;;;2.50;2.50;;;;;27.18;51.46;100209.00;4995403;28;45205;-87
2021/09/10 10:36:32;;;;;;;;;3.00;3.00;;;;;27.17;51.71;100231.03;4997326;28;45177;-88
2021/09/10 10:39:09;;;;;;;;;3.25;1.75;;;;;26.94;52.42;100226.72;4997155;28;45282;-86
2021/09/10 10:42:02;;;;;;;;;5.00;3.00;;;;;26.68;52.65;100232.81;4995793;28;48244;-87
2021/09/10 10:44:34;;;;;;;;;4.25;3.00;;;;;26.44;53.09;100215.03;4992552;28;45515;-87
2021/09/10 10:47:06;;;;;;;;;4.25;3.75;;;;;26.18;53.88;100220.03;4995839;28;45357;-87
2021/09/10 10:49:39;;;;;;;;;2.00;2.00;;;;;26.00;54.88;100215.03;4995307;28;45216;-88
2021/09/10 10:52:32;;;;;;;;;4.00;2.75;;;;;26.06;54.97;100221.59;4995431;28;47681;-87
2021/09/10 10:55:20;;;;;;;;;4.25;2.00;;;;;26.17;54.76;100220.22;4985411;28;45500;-86
2021/09/10 10:57:48;;;;;;;;;3.25;2.50;;;;;26.50;54.12;100201.41;4995354;28;45281;-87
2021/09/10 11:00:28;;;;;;;;;3.00;2.50;;;;;27.30;54.00;100214.72;4996563;28;45345;-86
2021/09/10 11:03:12;;;;;;;;;2.75;2.75;;;;;28.21;52.22;100226.38;4995165;28;47114;-86
2021/09/10 11:05:38;;;;;;;;;2.75;2.75;;;;;29.02;50.24;100216.22;4994908;28;45658;-86
2021/09/10 11:08:03;;;;;;;;;4.50;3.75;;;;;29.79;48.48;100202.63;4995341;28;45272;-88
2021/09/10 11:10:28;;;;;;;;;4.00;3.00;;;;;30.46;47.51;100189.31;4995065;28;45405;-87
2021/09/10 11:12:56;;;;;;;;;2.50;2.50;;;;;31.08;44.77;100187.63;4995051;28;47127;-87
2021/09/10 11:15:26;;;;;;;;;2.00;2.00;;;;;31.51;43.76;100194.91;4996530;28;45352;-88
2021/09/10 11:18:04;;;;;;;;;1.50;1.50;;;;;31.79;43.31;100188.00;4995333;28;45348;-88
2021/09/10 11:20:42;;;;;;;;;2.00;2.00;;;;;32.08;42.03;100197.28;4995068;28;45395;-88
2021/09/10 11:23:09;;;;;;;;;3.50;3.50;;;;;32.20;41.89;100193.75;4995094;28;47180;-87
2021/09/10 11:25:55;;;;;;;;;3.00;2.00;;;;;32.26;40.98;100196.38;4994489;28;45263;-87
2021/09/10 11:28:22;;;;;;;;;5.00;3.75;;;;;32.21;41.65;100196.25;4996681;28;45274;-87